Time;durP1;ratioP1;P1;durP2;ratioP2;P2;SDS_P1;SDS_P2;PMS_P1;PMS_P2;Temp;Humidity;BMP_temperature;BMP_pressure;BME280_temperature;BME280_humidity;BME280_pressure;Samples;Min_cycle;Max_cycle;Signal;HPM_P1;HPM_P2
2021/01/20 00:00:28;;;;;;;13.02;5.13;;;;;;;-4.83;54.82;98876.03;10417358;28;20076;-54
2021/01/20 00:05:31;;;;;;;13.50;5.53;;;;;;;-4.69;54.72;98873.78;10421234;28;20136;-47
2021/01/20 00:10:32;;;;;;;9.93;4.47;;;;;;;-4.56;54.88;98875.91;10414724;28;20045;-49
2021/01/20 00:15:34;;;;;;;12.75;5.22;;;;;;;-4.58;54.67;98877.72;10439597;28;20041;-49
2021/01/20 00:20:36;;;;;;;11.65;4.50;;;;;;;-4.61;55.08;98872.69;10456133;28;20140;-49
2021/01/20 00:25:38;;;;;;;11.30;3.90;;;;;;;-4.66;55.40;98876.25;10456024;28;20114;-48
2021/01/20 00:30:40;;;;;;;10.05;4.32;;;;;;;-4.53;55.32;98880.91;10456051;28;20060;-50
2021/01/20 00:35:42;;;;;;;9.82;4.07;;;;;;;-4.40;55.18;98884.72;10455939;28;20381;-47
2021/01/20 00:40:44;;;;;;;11.40;4.50;;;;;;;-4.31;55.12;98879.25;10455060;28;20076;-48
2021/01/20 00:45:46;;;;;;;7.68;2.90;;;;;;;-4.31;55.20;98878.38;10460960;28;20041;-49
2021/01/20 00:50:54;;;;;;;13.02;5.20;;;;;;;-4.35;55.52;98887.09;10495373;28;20478;-49
2021/01/20 00:55:56;;;;;;;11.90;5.10;;;;;;;-4.19;55.09;98891.59;10497626;28;20365;-48
2021/01/20 01:00:58;;;;;;;13.63;4.40;;;;;;;-4.10;55.03;98887.81;10502397;28;20451;-54
2021/01/20 01:06:01;;;;;;;12.25;4.28;;;;;;;-4.03;55.06;98891.84;10496305;28;20047;-49
2021/01/20 01:11:04;;;;;;;8.30;3.57;;;;;;;-3.98;55.15;98891.66;10495113;28;20141;-48
2021/01/20 01:16:15;;;;;;;13.02;4.78;;;;;;;-3.89;54.66;98891.28;10467546;28;20040;-48
2021/01/20 01:21:18;;;;;;;11.75;5.03;;;;;;;-3.83;54.76;98890.22;10459461;28;20425;-49
2021/01/20 01:26:20;;;;;;;12.85;5.03;;;;;;;-3.86;54.96;98883.47;10462474;28;20041;-48
2021/01/20 01:31:22;;;;;;;10.45;4.18;;;;;;;-3.89;55.19;98881.03;10462422;28;20056;-49
2021/01/20 01:36:25;;;;;;;12.73;4.93;;;;;;;-3.94;55.16;98885.53;10461114;28;20043;-49
2021/01/20 01:41:31;;;;;;;11.13;4.30;;;;;;;-3.90;55.14;98873.41;10463671;28;20081;-50
2021/01/20 01:46:40;;;;;;;9.85;4.35;;;;;;;-3.84;54.97;98868.03;10462390;28;20044;-50
2021/01/20 01:52:06;;;;;;;9.13;4.57;;;;;;;-3.83;54.48;98870.50;10458833;28;20063;-48
2021/01/20 01:57:13;;;;;;;13.95;5.40;;;;;;;-3.85;54.40;98885.13;10462400;28;20130;-50
2021/01/20 02:02:21;;;;;;;31.08;10.38;;;;;;;-3.88;54.80;98876.72;10460293;28;20527;-48
2021/01/20 02:07:26;;;;;;;25.27;9.10;;;;;;;-3.87;54.68;98899.78;10460490;28;20390;-48
2021/01/20 02:12:56;;;;;;;26.48;9.07;;;;;;;-3.87;54.94;98904.94;10460330;28;20102;-48
2021/01/20 02:18:02;;;;;;;16.13;6.57;;;;;;;-3.88;55.20;98899.84;10418691;28;20462;-49
2021/01/20 02:23:25;;;;;;;13.30;4.82;;;;;;;-3.88;55.25;98902.41;10418884;28;20053;-48
2021/01/20 02:28:42;;;;;;;7.93;3.70;;;;;;;-3.96;55.12;98905.28;10419726;28;20461;-49
2021/01/20 02:34:04;;;;;;;10.38;4.25;;;;;;;-3.99;55.47;98906.22;10455979;28;20044;-50
2021/01/20 02:39:09;;;;;;;11.50;4.25;;;;;;;-3.87;55.26;98910.06;10463405;28;20045;-48
2021/01/20 02:44:12;;;;;;;8.15;3.30;;;;;;;-3.75;55.20;98899.31;10458879;28;20060;-47
2021/01/20 02:49:15;;;;;;;10.02;3.67;;;;;;;-3.64;55.31;98895.47;10461273;28;20048;-50
2021/01/20 02:54:21;;;;;;;7.07;2.80;;;;;;;-3.79;55.92;98894.34;10460831;28;20048;-49
2021/01/20 02:59:45;;;;;;;13.02;5.45;;;;;;;-3.72;55.69;98888.06;10475190;28;20048;-51
2021/01/20 03:05:16;;;;;;;21.17;7.38;;;;;;;-3.59;55.04;98899.53;10498825;28;20059;-48
2021/01/20 03:10:19;;;;;;;16.77;6.57;;;;;;;-3.64;55.01;98895.47;10500558;28;20141;-48
2021/01/20 03:15:24;;;;;;;26.43;10.93;;;;;;;-3.74;55.26;98900.97;10479043;28;20159;-49
2021/01/20 03:20:27;;;;;;;27.23;10.07;;;;;;;-3.73;55.43;98907.75;10428702;28;20045;-48
2021/01/20 03:25:28;;;;;;;23.13;8.90;;;;;;;-3.70;55.24;98901.66;10425126;28;20055;-48
2021/01/20 03:30:30;;;;;;;31.75;13.70;;;;;;;-3.72;55.08;98914.59;10487466;28;20517;-47
2021/01/20 03:35:34;;;;;;;28.02;11.25;;;;;;;-3.78;55.47;98899.44;10457633;28;20049;-47
2021/01/20 03:40:36;;;;;;;24.17;12.23;;;;;;;-3.73;55.14;98896.66;10476550;28;20077;-49
2021/01/20 03:45:37;;;;;;;32.67;13.65;;;;;;;-3.74;55.36;98890.69;10460967;28;20087;-49
2021/01/20 03:50:40;;;;;;;42.72;16.17;;;;;;;-3.75;54.87;98904.44;10456410;28;20496;-48
2021/01/20 03:55:41;;;;;;;39.78;16.50;;;;;;;-3.75;54.98;98908.75;10456344;28;20084;-49
2021/01/20 04:00:43;;;;;;;31.92;14.27;;;;;;;-3.70;54.96;98911.94;10458125;28;20075;-49
2021/01/20 04:05:46;;;;;;;28.85;10.43;;;;;;;-3.75;55.20;98911.31;10456216;28;20037;-48
2021/01/20 04:10:47;;;;;;;23.20;10.07;;;;;;;-3.75;55.11;98924.97;10457146;28;20056;-50
2021/01/20 04:15:50;;;;;;;22.67;9.30;;;;;;;-3.73;55.00;98920.59;10462808;28;20047;-55
2021/01/20 04:20:53;;;;;;;16.38;7.75;;;;;;;-3.66;54.94;98925.50;10457829;28;20520;-49
2021/01/20 04:25:54;;;;;;;21.93;8.10;;;;;;;-3.71;55.54;98928.25;10456266;28;20055;-50
2021/01/20 04:30:56;;;;;;;15.65;7.05;;;;;;;-3.61;55.53;98927.00;10458164;28;20087;-48
2021/01/20 04:35:59;;;;;;;12.48;5.60;;;;;;;-3.49;55.55;98920.53;10459053;28;20045;-52
2021/01/20 04:41:00;;;;;;;11.13;5.43;;;;;;;-3.42;55.45;98921.94;10455501;28;20041;-49
2021/01/20 04:46:02;;;;;;;11.77;5.45;;;;;;;-3.38;55.37;98922.69;10457787;28;20372;-49
2021/01/20 04:51:07;;;;;;;11.55;4.90;;;;;;;-3.39;55.49;98924.38;10458496;28;20053;-48
2021/01/20 04:56:12;;;;;;;10.77;5.25;;;;;;;-3.37;55.30;98932.88;10462031;28;20068;-49
2021/01/20 05:01:18;;;;;;;10.68;5.05;;;;;;;-3.36;55.30;98937.13;10460130;28;20493;-48
2021/01/20 05:06:20;;;;;;;11.60;5.13;;;;;;;-3.37;55.52;98939.75;10460055;28;20132;-48
2021/01/20 05:11:36;;;;;;;20.23;5.63;;;;;;;-3.39;55.71;98952.66;10458630;28;20067;-51
2021/01/20 05:16:38;;;;;;;10.32;5.05;;;;;;;-3.33;55.63;98942.13;10458482;28;20094;-49
2021/01/20 05:21:41;;;;;;;8.73;3.83;;;;;;;-3.35;55.57;98949.09;10458309;28;20049;-50
2021/01/20 05:26:43;;;;;;;9.77;3.83;;;;;;;-3.26;55.75;98943.56;10458419;28;20048;-50
2021/01/20 05:31:45;;;;;;;14.73;5.57;;;;;;;-3.30;55.53;98947.16;10458641;28;20053;-48
2021/01/20 05:37:01;;;;;;;10.82;4.00;;;;;;;-3.31;55.43;98945.47;10460922;28;20059;-57
2021/01/20 05:42:08;;;;;;;10.48;4.68;;;;;;;-3.34;55.72;98950.75;10458032;28;20393;-48
2021/01/20 05:47:10;;;;;;;11.32;4.68;;;;;;;-3.31;55.42;98960.91;10457895;28;20136;-49
2021/01/20 05:52:14;;;;;;;8.95;4.07;;;;;;;-3.27;55.24;98956.47;10456441;28;20143;-48
2021/01/20 05:57:18;;;;;;;9.45;3.97;;;;;;;-3.18;55.47;98965.53;10458062;28;20057;-50
2021/01/20 06:02:20;;;;;;;8.88;3.90;;;;;;;-3.12;55.32;98975.56;10456908;28;20075;-48
2021/01/20 06:07:22;;;;;;;11.63;3.53;;;;;;;-3.07;55.74;98973.66;10461036;28;20053;-48
2021/01/20 06:12:25;;;;;;;8.85;3.35;;;;;;;-3.04;55.68;98976.94;10464582;28;20049;-49
2021/01/20 06:17:32;;;;;;;9.38;3.28;;;;;;;-2.97;56.05;98971.53;10464221;28;20049;-48
2021/01/20 06:22:39;;;;;;;7.18;2.92;;;;;;;-2.91;56.39;98974.69;10463063;28;20546;-48
2021/01/20 06:27:44;;;;;;;12.90;3.22;;;;;;;-3.03;57.33;98985.50;10464088;28;20106;-48
2021/01/20 06:32:47;;;;;;;7.85;3.25;;;;;;;-2.93;57.09;98989.34;10464584;28;20049;-49
2021/01/20 06:37:50;;;;;;;7.75;2.60;;;;;;;-2.82;56.88;99000.03;10464670;28;20136;-48
2021/01/20 06:42:53;;;;;;;8.00;3.55;;;;;;;-2.80;56.99;98994.84;10463903;28;20048;-50
2021/01/20 06:48:06;;;;;;;6.85;3.20;;;;;;;-2.66;57.40;98999.38;10463013;28;20048;-49
2021/01/20 06:53:09;;;;;;;10.75;4.00;;;;;;;-2.53;57.07;99013.38;10462890;28;20049;-48
2021/01/20 06:58:18;;;;;;;8.60;3.42;;;;;;;-2.39;56.48;99010.22;10462940;28;20053;-49
2021/01/20 07:03:19;;;;;;;7.28;3.30;;;;;;;-2.36;56.66;99000.63;10466047;28;20061;-49
2021/01/20 07:08:42;;;;;;;8.60;3.55;;;;;;;-2.27;57.31;99001.16;10462804;28;20049;-49
2021/01/20 07:13:44;;;;;;;5.57;2.17;;;;;;;-2.15;57.48;99006.59;10462383;28;20377;-49
2021/01/20 07:18:48;;;;;;;4.85;1.80;;;;;;;-2.08;58.14;99007.97;10462779;28;20056;-49
2021/01/20 07:23:51;;;;;;;5.28;2.25;;;;;;;-1.98;58.59;99008.38;10462180;28;20049;-48
2021/01/20 07:28:53;;;;;;;7.05;2.53;;;;;;;-1.81;58.91;99014.53;10462035;28;20045;-49
2021/01/20 07:33:54;;;;;;;5.50;2.00;;;;;;;-1.69;58.41;99012.22;10461646;28;20063;-50
2021/01/20 07:38:57;;;;;;;4.35;1.80;;;;;;;-1.59;58.55;99014.38;10463300;28;20049;-53
2021/01/20 07:44:06;;;;;;;5.13;2.10;;;;;;;-1.55;59.08;99021.88;10461574;28;20098;-50
2021/01/20 07:49:11;;;;;;;5.38;1.83;;;;;;;-1.55;59.47;99015.91;10460798;28;20060;-51
2021/01/20 07:54:13;;;;;;;5.95;1.98;;;;;;;-1.52;59.54;99002.88;10483565;28;20131;-51
2021/01/20 07:59:16;;;;;;;4.47;1.60;;;;;;;-1.43;60.40;99018.72;10505759;28;20121;-49
2021/01/20 08:04:20;;;;;;;7.22;2.03;;;;;;;-1.24;60.71;99025.59;10502693;28;20147;-48
2021/01/20 08:09:35;;;;;;;4.88;1.55;;;;;;;-1.02;60.52;99026.22;10501405;28;20045;-49
2021/01/20 08:14:38;;;;;;;4.38;1.85;;;;;;;-0.86;60.25;99026.34;10500856;28;20040;-49
2021/01/20 08:19:40;;;;;;;5.28;1.98;;;;;;;-0.77;60.75;99025.03;10502104;28;20045;-50
2021/01/20 08:24:45;;;;;;;3.97;1.77;;;;;;;-0.54;60.89;99031.63;10502804;28;20132;-49
2021/01/20 08:29:52;;;;;;;4.57;1.73;;;;;;;-0.34;60.62;99038.34;10500448;28;20373;-49
2021/01/20 08:34:55;;;;;;;5.93;1.77;;;;;;;-0.08;60.31;99045.59;10500786;28;20059;-48
2021/01/20 08:39:59;;;;;;;3.63;1.50;;;;;;;0.12;59.99;99051.47;10507914;28;20075;-59
2021/01/20 08:45:03;;;;;;;4.10;1.65;;;;;;;0.22;60.58;99047.50;10503403;28;20048;-50
2021/01/20 08:50:05;;;;;;;5.15;1.65;;;;;;;0.11;60.40;99049.81;10500193;28;20058;-50
2021/01/20 08:55:09;;;;;;;4.30;1.80;;;;;;;0.16;60.98;99051.25;10499515;28;20045;-50
2021/01/20 09:00:12;;;;;;;2.83;1.00;;;;;;;0.13;60.87;99043.66;10500299;28;20453;-49
2021/01/20 09:05:14;;;;;;;4.43;1.33;;;;;;;-0.09;60.71;99043.13;10499490;28;20044;-48
2021/01/20 09:10:18;;;;;;;5.27;1.60;;;;;;;0.09;61.23;99051.63;10500011;28;20060;-49
2021/01/20 09:15:20;;;;;;;5.23;1.47;;;;;;;0.18;61.03;99051.97;10499396;28;20045;-49
2021/01/20 09:20:21;;;;;;;3.97;1.55;;;;;;;0.27;61.67;99049.81;10499325;28;20052;-50
2021/01/20 09:25:24;;;;;;;5.70;1.50;;;;;;;0.41;61.05;99057.69;10499475;28;20120;-49
2021/01/20 09:30:26;;;;;;;4.35;1.85;;;;;;;0.27;60.96;99055.00;10499066;28;20048;-48
2021/01/20 09:35:28;;;;;;;4.97;1.35;;;;;;;0.25;61.47;99052.50;10499967;28;20144;-48
2021/01/20 09:40:32;;;;;;;6.10;1.77;;;;;;;0.34;61.70;99059.78;10502069;28;20052;-51
2021/01/20 09:45:33;;;;;;;3.47;1.42;;;;;;;0.39;61.29;99060.34;10512755;28;20140;-49
2021/01/20 09:50:36;;;;;;;4.25;1.42;;;;;;;0.48;61.68;99069.34;10506939;28;20514;-49
2021/01/20 09:55:39;;;;;;;4.93;1.50;;;;;;;0.56;61.73;99071.53;10507020;28;20465;-49
2021/01/20 10:00:41;;;;;;;5.30;1.58;;;;;;;0.35;61.79;99069.19;10506490;28;20388;-50
2021/01/20 10:05:42;;;;;;;3.90;1.27;;;;;;;0.28;61.70;99073.03;10507209;28;20058;-49
2021/01/20 10:10:45;;;;;;;4.45;1.85;;;;;;;0.42;61.62;99067.94;10506118;28;20121;-50
2021/01/20 10:15:47;;;;;;;4.70;1.40;;;;;;;0.50;61.16;99074.47;10505451;28;20151;-48
2021/01/20 10:20:50;;;;;;;3.58;1.20;;;;;;;0.61;61.33;99070.34;10505363;28;20060;-49
2021/01/20 10:25:53;;;;;;;4.60;1.60;;;;;;;0.60;61.13;99066.09;10505140;28;20044;-49
2021/01/20 10:30:55;;;;;;;4.47;1.60;;;;;;;0.42;61.55;99065.34;10505173;28;20064;-50
2021/01/20 10:35:56;;;;;;;4.03;1.60;;;;;;;0.43;61.74;99066.16;10505076;28;20041;-50
2021/01/20 10:40:59;;;;;;;8.40;2.42;;;;;;;0.30;61.71;99071.16;10504879;28;20080;-50
2021/01/20 10:46:01;;;;;;;4.68;1.92;;;;;;;0.33;61.62;99076.19;10505041;28;20049;-49
2021/01/20 10:51:02;;;;;;;4.65;1.75;;;;;;;0.26;61.66;99074.00;10503819;28;20497;-50
2021/01/20 10:56:06;;;;;;;4.30;1.20;;;;;;;0.11;61.46;99065.31;10504512;28;20056;-50
2021/01/20 11:01:08;;;;;;;12.40;2.38;;;;;;;0.17;61.83;99072.75;10504203;28;20163;-48
2021/01/20 11:06:09;;;;;;;6.80;1.73;;;;;;;0.31;61.60;99072.00;10506608;28;20483;-49
2021/01/20 11:11:12;;;;;;;4.93;1.58;;;;;;;0.44;61.50;99084.22;10504041;28;20053;-49
2021/01/20 11:16:14;;;;;;;4.45;1.45;;;;;;;0.57;61.53;99078.38;10503711;28;20045;-49
2021/01/20 11:21:16;;;;;;;5.32;2.22;;;;;;;0.57;60.54;99080.97;10504190;28;20048;-49
2021/01/20 11:26:18;;;;;;;5.00;1.70;;;;;;;0.40;60.54;99082.72;10505327;28;20534;-57
2021/01/20 11:31:20;;;;;;;6.03;2.42;;;;;;;0.42;61.07;99075.69;10508460;28;20056;-49
2021/01/20 11:36:22;;;;;;;6.05;2.88;;;;;;;0.66;61.53;99077.88;10503389;28;20144;-48
2021/01/20 11:41:24;;;;;;;5.82;2.67;;;;;;;0.71;61.15;99075.03;10503052;28;20516;-50
2021/01/20 11:46:26;;;;;;;5.70;2.72;;;;;;;0.74;61.25;99080.88;10502285;28;20473;-48
2021/01/20 11:51:31;;;;;;;4.90;2.00;;;;;;;0.74;60.56;99080.03;10501789;28;20147;-48
2021/01/20 11:56:33;;;;;;;4.85;1.83;;;;;;;0.63;60.92;99083.22;10500533;28;20189;-50
2021/01/20 12:01:35;;;;;;;5.03;1.95;;;;;;;0.72;60.39;99087.06;10506495;28;20147;-48
2021/01/20 12:06:37;;;;;;;4.53;2.08;;;;;;;0.72;60.32;99087.88;10500528;28;20513;-50
2021/01/20 12:11:39;;;;;;;6.25;2.17;;;;;;;0.63;60.13;99081.47;10502088;28;20071;-49
2021/01/20 12:16:41;;;;;;;7.47;2.30;;;;;;;0.55;60.04;99085.38;10500768;28;20098;-49
2021/01/20 12:21:43;;;;;;;6.00;2.00;;;;;;;0.45;60.01;99087.63;10500179;28;20079;-50
2021/01/20 12:26:45;;;;;;;5.20;1.90;;;;;;;0.34;59.95;99080.44;10503369;28;20072;-50
2021/01/20 12:31:47;;;;;;;5.82;2.45;;;;;;;0.21;59.92;99085.41;10501591;28;20058;-49
2021/01/20 12:36:49;;;;;;;5.55;2.25;;;;;;;0.14;60.02;99083.25;10501235;28;20147;-50
2021/01/20 12:41:52;;;;;;;5.28;2.45;;;;;;;0.13;59.38;99091.91;10500227;28;20109;-51
2021/01/20 12:46:54;;;;;;;6.18;2.25;;;;;;;0.10;58.99;99102.41;10500709;28;20499;-49
2021/01/20 12:51:55;;;;;;;6.78;2.30;;;;;;;-0.02;58.69;99099.53;10499781;28;20050;-50
2021/01/20 12:56:58;;;;;;;5.82;2.42;;;;;;;-0.29;59.29;99099.19;10500953;28;20049;-50
2021/01/20 13:02:00;;;;;;;7.15;2.88;;;;;;;-0.43;59.47;99106.81;10499885;28;20146;-49
2021/01/20 13:07:02;;;;;;;7.72;2.55;;;;;;;-0.49;59.08;99105.38;10466158;28;20094;-49
2021/01/20 13:12:05;;;;;;;6.07;2.42;;;;;;;-0.57;59.11;99116.97;10459528;28;20049;-48
2021/01/20 13:17:07;;;;;;;5.50;2.70;;;;;;;-0.51;59.07;99117.50;10498453;28;20477;-49
2021/01/20 13:22:09;;;;;;;8.43;2.80;;;;;;;-0.63;58.96;99123.28;10511670;28;20072;-49
2021/01/20 13:27:11;;;;;;;6.63;2.70;;;;;;;-0.65;58.30;99129.41;10510079;28;20127;-51
2021/01/20 13:32:13;;;;;;;6.70;3.08;;;;;;;-0.76;58.60;99124.78;10510066;28;20062;-51
2021/01/20 13:37:15;;;;;;;5.15;2.45;;;;;;;-0.78;57.96;99132.59;10541639;28;20490;-51
2021/01/20 13:42:18;;;;;;;7.18;2.95;;;;;;;-0.79;57.65;99146.41;10508350;28;20127;-50
2021/01/20 13:47:19;;;;;;;7.18;3.53;;;;;;;-0.93;58.06;99149.63;10506993;28;20052;-50
2021/01/20 13:52:21;;;;;;;6.97;3.00;;;;;;;-1.03;58.03;99168.19;10509163;28;20391;-50
2021/01/20 13:57:24;;;;;;;9.18;3.10;;;;;;;-1.17;58.18;99168.81;10506998;28;20102;-48
2021/01/20 14:02:25;;;;;;;5.85;2.13;;;;;;;-1.25;58.05;99168.34;10497387;28;20156;-50
2021/01/20 14:07:28;;;;;;;7.40;2.70;;;;;;;-1.26;57.94;99177.84;10465287;28;20452;-49
2021/01/20 14:12:30;;;;;;;7.07;2.28;;;;;;;-1.26;57.96;99185.56;10489360;28;20193;-51
2021/01/20 14:17:32;;;;;;;6.80;2.33;;;;;;;-1.36;58.59;99189.44;10506731;28;20059;-48
2021/01/20 14:22:34;;;;;;;7.10;2.38;;;;;;;-1.36;58.42;99191.19;10504481;28;20052;-50
2021/01/20 14:27:36;;;;;;;5.65;2.30;;;;;;;-1.35;58.24;99198.88;10503342;28;20052;-50
2021/01/20 14:32:38;;;;;;;10.68;3.10;;;;;;;-1.33;58.00;99206.53;10506274;28;20080;-49
2021/01/20 14:37:40;;;;;;;8.10;3.00;;;;;;;-1.32;58.05;99209.06;10505337;28;20449;-49
2021/01/20 14:42:42;;;;;;;6.10;2.60;;;;;;;-1.36;58.07;99204.09;10504727;28;20044;-49
2021/01/20 14:47:44;;;;;;;11.30;3.40;;;;;;;-1.38;58.24;99213.66;10504724;28;20473;-48
2021/01/20 14:52:45;;;;;;;12.80;6.63;;;;;;;-1.45;58.07;99218.22;10504327;28;20056;-50
2021/01/20 14:57:48;;;;;;;8.60;4.60;;;;;;;-1.43;58.14;99216.41;10504685;28;20485;-49
2021/01/20 15:02:50;;;;;;;7.63;2.90;;;;;;;-1.59;58.11;99218.81;10501521;28;20099;-49
2021/01/20 15:07:51;;;;;;;8.70;3.30;;;;;;;-1.66;58.52;99231.16;10504465;28;20049;-50
2021/01/20 15:12:54;;;;;;;7.75;3.58;;;;;;;-1.73;58.39;99232.28;10506322;28;20539;-48
2021/01/20 15:17:56;;;;;;;7.70;4.18;;;;;;;-1.77;57.96;99241.06;10438311;28;20045;-48
2021/01/20 15:22:57;;;;;;;6.80;2.45;;;;;;;-1.81;57.83;99246.41;10427704;28;20048;-48
2021/01/20 15:28:00;;;;;;;8.73;4.28;;;;;;;-1.85;58.07;99250.84;10460342;28;20044;-48
2021/01/20 15:33:02;;;;;;;7.43;3.03;;;;;;;-1.89;57.67;99252.72;10459870;28;20049;-47
2021/01/20 15:38:03;;;;;;;8.75;3.10;;;;;;;-1.91;58.04;99245.94;10460372;28;20057;-49
2021/01/20 15:43:06;;;;;;;8.25;3.03;;;;;;;-1.86;57.65;99259.47;10461437;28;20064;-49
2021/01/20 15:48:08;;;;;;;12.85;3.90;;;;;;;-1.90;57.57;99263.94;10461161;28;20560;-48
2021/01/20 15:53:10;;;;;;;7.20;3.20;;;;;;;-1.88;57.32;99259.56;10460639;28;20056;-48
2021/01/20 15:58:13;;;;;;;8.15;3.60;;;;;;;-1.86;57.22;99265.47;10456265;28;20067;-48
2021/01/20 16:03:15;;;;;;;7.28;3.10;;;;;;;-1.80;57.13;99268.69;10456754;28;20053;-48
2021/01/20 16:08:17;;;;;;;8.93;3.47;;;;;;;-1.78;57.15;99274.63;10457735;28;20076;-48
2021/01/20 16:13:19;;;;;;;7.60;3.13;;;;;;;-1.80;57.45;99273.84;10440288;28;20058;-53
2021/01/20 16:18:21;;;;;;;8.75;4.13;;;;;;;-1.80;57.45;99271.28;10453570;28;20538;-49
2021/01/20 16:23:23;;;;;;;9.90;3.83;;;;;;;-1.84;57.46;99282.63;10456548;28;20060;-48
2021/01/20 16:28:26;;;;;;;9.27;3.15;;;;;;;-1.99;57.34;99279.75;10496606;28;20087;-48
2021/01/20 16:33:29;;;;;;;9.82;4.00;;;;;;;-2.01;57.28;99286.69;10471890;28;20136;-48
2021/01/20 16:38:30;;;;;;;10.20;3.10;;;;;;;-2.09;57.20;99274.16;10456232;28;20048;-48
2021/01/20 16:43:33;;;;;;;9.02;3.55;;;;;;;-2.12;57.35;99283.75;10454038;28;20511;-49
2021/01/20 16:48:35;;;;;;;8.30;2.97;;;;;;;-2.11;57.30;99275.09;10454616;28;20055;-49
2021/01/20 16:53:36;;;;;;;7.45;2.97;;;;;;;-2.10;57.32;99285.31;10455035;28;20052;-48
2021/01/20 16:58:39;;;;;;;9.15;3.65;;;;;;;-2.09;56.85;99288.78;10460208;28;20509;-49
2021/01/20 17:03:41;;;;;;;7.00;3.42;;;;;;;-2.14;56.87;99291.50;10454896;28;20547;-48
2021/01/20 17:08:42;;;;;;;11.40;2.97;;;;;;;-2.24;56.88;99297.09;10454415;28;20543;-50
2021/01/20 17:13:45;;;;;;;7.35;2.72;;;;;;;-2.30;56.96;99294.78;10455404;28;20143;-49
2021/01/20 17:18:47;;;;;;;8.73;3.15;;;;;;;-2.36;57.06;99291.53;10453855;28;20045;-49
2021/01/20 17:23:49;;;;;;;9.68;3.70;;;;;;;-2.33;57.19;99291.41;10454371;28;20478;-49
2021/01/20 17:28:51;;;;;;;8.32;3.15;;;;;;;-2.30;57.01;99289.63;10453520;28;20047;-48
2021/01/20 17:33:53;;;;;;;10.48;3.80;;;;;;;-2.35;57.00;99287.22;10454755;28;20106;-50
2021/01/20 17:38:55;;;;;;;7.50;3.28;;;;;;;-2.34;57.03;99287.16;10454606;28;20505;-49
2021/01/20 17:43:58;;;;;;;8.80;3.10;;;;;;;-2.40;56.94;99284.81;10452757;28;20059;-48
2021/01/20 17:48:59;;;;;;;15.70;3.53;;;;;;;-2.35;57.31;99282.91;10454127;28;20469;-49
2021/01/20 17:54:01;;;;;;;7.78;3.22;;;;;;;-2.40;56.84;99284.81;10455739;28;20068;-52
2021/01/20 17:59:04;;;;;;;5.55;2.78;;;;;;;-2.49;56.92;99290.34;10453958;28;20460;-49
2021/01/20 18:04:06;;;;;;;10.20;3.00;;;;;;;-2.60;57.05;99282.19;10460926;28;20095;-49
2021/01/20 18:09:07;;;;;;;7.60;3.08;;;;;;;-2.61;57.08;99285.66;10462850;28;20053;-49
2021/01/20 18:14:10;;;;;;;8.65;3.53;;;;;;;-2.58;56.74;99288.94;10463704;28;20140;-49
2021/01/20 18:19:12;;;;;;;7.65;3.60;;;;;;;-2.55;56.24;99288.00;10463468;28;20133;-48
2021/01/20 18:24:13;;;;;;;9.07;3.58;;;;;;;-2.73;56.22;99286.13;10463194;28;20056;-50
2021/01/20 18:29:16;;;;;;;8.13;2.75;;;;;;;-2.92;56.10;99281.66;10460284;28;20037;-51
2021/01/20 18:34:19;;;;;;;9.63;3.47;;;;;;;-3.00;55.88;99283.66;10462197;28;20489;-48
2021/01/20 18:39:21;;;;;;;7.25;3.13;;;;;;;-3.17;55.73;99283.41;10462512;28;20049;-50
2021/01/20 18:44:23;;;;;;;8.07;2.90;;;;;;;-3.30;55.14;99293.31;10459843;28;20481;-48
2021/01/20 18:49:25;;;;;;;8.77;3.35;;;;;;;-3.47;54.90;99289.59;10463228;28;20053;-49
2021/01/20 18:54:27;;;;;;;8.55;3.70;;;;;;;-3.68;54.43;99286.94;10465287;28;20146;-48
2021/01/20 18:59:29;;;;;;;8.57;3.35;;;;;;;-3.79;53.93;99293.25;10461199;28;20135;-48
2021/01/20 19:04:31;;;;;;;7.18;3.10;;;;;;;-3.94;53.65;99291.22;10459250;28;20771;-50
2021/01/20 19:09:33;;;;;;;13.68;4.85;;;;;;;-4.15;53.50;99291.91;10459768;28;20056;-49
2021/01/20 19:14:38;;;;;;;13.63;4.75;;;;;;;-4.50;53.77;99288.69;10444474;28;20124;-48
2021/01/20 19:19:40;;;;;;;10.27;4.22;;;;;;;-4.71;53.54;99288.47;10419562;28;20102;-48
2021/01/20 19:24:42;;;;;;;14.07;4.60;;;;;;;-4.95;53.83;99291.75;10420882;28;20061;-48
2021/01/20 19:29:44;;;;;;;11.38;3.80;;;;;;;-5.20;53.92;99287.31;10418552;28;20064;-48
2021/01/20 19:34:46;;;;;;;8.40;2.50;;;;;;;-5.32;53.53;99292.78;10455568;28;20501;-47
2021/01/20 19:39:48;;;;;;;13.27;3.60;;;;;;;-5.56;53.95;99295.09;10459670;28;20049;-49
2021/01/20 19:44:51;;;;;;;10.65;4.05;;;;;;;-5.69;53.92;99308.28;10464414;28;20065;-56
2021/01/20 19:49:53;;;;;;;7.10;2.73;;;;;;;-5.86;53.92;99311.22;10457133;28;20056;-47
2021/01/20 19:54:54;;;;;;;9.23;3.63;;;;;;;-6.04;54.13;99303.16;10455429;28;20045;-49
2021/01/20 19:59:57;;;;;;;9.55;4.13;;;;;;;-6.17;53.97;99301.78;10456711;28;20055;-48
2021/01/20 20:04:58;;;;;;;8.63;3.17;;;;;;;-6.26;53.81;99309.66;10456895;28;20044;-47
2021/01/20 20:10:00;;;;;;;6.40;2.53;;;;;;;-6.35;53.40;99307.31;10455390;28;20110;-49
2021/01/20 20:15:04;;;;;;;8.82;2.50;;;;;;;-6.45;53.59;99311.81;10456488;28;20048;-48
2021/01/20 20:20:07;;;;;;;8.40;2.88;;;;;;;-6.55;53.45;99300.09;10455658;28;20126;-48
2021/01/20 20:25:10;;;;;;;8.05;3.45;;;;;;;-6.68;53.50;99302.09;10453362;28;20045;-47
2021/01/20 20:30:15;;;;;;;9.85;3.53;;;;;;;-6.75;53.66;99310.75;10488454;28;20048;-49
2021/01/20 20:35:16;;;;;;;10.73;3.55;;;;;;;-6.85;53.22;99320.31;10416186;28;20049;-49
2021/01/20 20:40:18;;;;;;;8.40;3.40;;;;;;;-6.88;53.14;99322.94;10415262;28;20053;-47
2021/01/20 20:45:21;;;;;;;7.38;3.05;;;;;;;-6.97;53.24;99313.75;10418468;28;20056;-48
2021/01/20 20:50:22;;;;;;;11.88;3.63;;;;;;;-7.08;53.22;99309.72;10416119;28;20049;-51
2021/01/20 20:55:24;;;;;;;10.73;3.50;;;;;;;-7.16;53.14;99311.59;10413381;28;20056;-56
2021/01/20 21:00:27;;;;;;;9.38;3.63;;;;;;;-7.27;53.12;99314.34;10413405;28;20207;-50
2021/01/20 21:05:28;;;;;;;8.90;3.60;;;;;;;-7.41;53.14;99318.00;10418568;28;20199;-46
2021/01/20 21:10:30;;;;;;;9.30;3.97;;;;;;;-7.54;53.29;99306.34;10455498;28;20055;-49
2021/01/20 21:15:33;;;;;;;12.70;3.95;;;;;;;-7.57;53.11;99316.63;10455814;28;20049;-49
2021/01/20 21:20:34;;;;;;;8.55;3.30;;;;;;;-7.59;52.69;99318.34;10454506;28;20048;-47
2021/01/20 21:25:36;;;;;;;8.98;3.25;;;;;;;-7.62;52.81;99320.13;10453215;28;20135;-47
2021/01/20 21:30:39;;;;;;;9.90;4.38;;;;;;;-7.76;52.81;99317.78;10452194;28;20047;-50
2021/01/20 21:35:40;;;;;;;8.80;2.97;;;;;;;-7.87;52.29;99313.72;10453750;28;20049;-48
2021/01/20 21:40:42;;;;;;;5.53;2.65;;;;;;;-7.91;52.59;99311.25;10462418;28;20325;-49
2021/01/20 21:45:45;;;;;;;10.18;3.85;;;;;;;-8.06;52.33;99297.03;10461167;28;20497;-48
2021/01/20 21:50:47;;;;;;;11.73;4.43;;;;;;;-8.17;52.85;99306.56;10462415;28;20114;-49
2021/01/20 21:55:49;;;;;;;14.77;4.40;;;;;;;-8.22;52.34;99300.69;10460211;28;20474;-49
2021/01/20 22:00:51;;;;;;;12.48;3.70;;;;;;;-8.25;52.23;99309.25;10459860;28;20438;-47
2021/01/20 22:05:53;;;;;;;8.00;3.08;;;;;;;-8.36;52.30;99311.94;10458069;28;20045;-48
2021/01/20 22:10:55;;;;;;;10.25;4.50;;;;;;;-8.47;52.42;99301.09;10458652;28;20045;-47
2021/01/20 22:15:58;;;;;;;10.60;2.95;;;;;;;-8.53;52.01;99303.72;10461297;28;20045;-47
2021/01/20 22:21:00;;;;;;;13.93;4.22;;;;;;;-8.59;51.92;99302.13;10462776;28;20075;-48
2021/01/20 22:26:02;;;;;;;13.13;4.10;;;;;;;-8.73;52.14;99293.81;10462393;28;20052;-58
2021/01/20 22:31:04;;;;;;;12.85;4.72;;;;;;;-8.87;52.66;99298.25;10465005;28;20049;-48
2021/01/20 22:36:07;;;;;;;9.57;3.58;;;;;;;-8.93;52.33;99286.44;10461105;28;20045;-52
2021/01/20 22:41:08;;;;;;;8.57;2.87;;;;;;;-9.07;52.37;99288.34;10459050;28;20068;-48
2021/01/20 22:46:11;;;;;;;12.00;4.03;;;;;;;-9.12;52.19;99285.00;10459241;28;20072;-47
2021/01/20 22:51:12;;;;;;;9.60;3.67;;;;;;;-9.12;51.83;99285.00;10458775;28;20059;-47
2021/01/20 22:56:14;;;;;;;7.70;3.05;;;;;;;-9.24;52.20;99285.97;10459326;28;20486;-55
2021/01/20 23:01:17;;;;;;;10.70;3.67;;;;;;;-9.33;51.98;99293.72;10461068;28;20498;-51
2021/01/20 23:06:18;;;;;;;7.85;2.58;;;;;;;-9.42;52.05;99287.06;10458841;28;20094;-48
2021/01/20 23:11:20;;;;;;;12.70;4.30;;;;;;;-9.40;51.99;99290.41;10458103;28;20049;-47
2021/01/20 23:16:23;;;;;;;3.43;1.30;;;;;;;-9.39;51.90;99286.16;10459371;28;20079;-48
2021/01/20 23:21:25;;;;;;;5.72;2.00;;;;;;;-9.46;52.11;99282.84;10458519;28;20053;-49
2021/01/20 23:26:26;;;;;;;10.90;3.17;;;;;;;-9.57;52.15;99280.41;10458331;28;20052;-48